Item Display Status Inductive CT Sensor

Mooring Depth: 80 m

 

Deployed Sensor

  • Serial Number: 4872
  • NDBC Property Number: 26477
  • Start Date: 4/19/2019 (15:50:20 Z)
  • End Date: 3/20/2020 (17:45:00 Z)
Water Temperature [°C]     6 entries per hour
Showing data from 3/20/2020 (17:00:00 Z) to 3/19/2020 (00:00:01 Z)
Previous Next [ Day | 3-Days | 7-Days ]
First Last
Prev [ Day | 3-Days | 7-Days ] Next
First Last

Start Time:     :
End Time:     :     
Time (in GMT) :00 :50 :40 :30 :20 :10
Previous Next [ Day | 3-Days | 7-Days ]
First Last
Prev [ Day | 3-Days | 7-Days ] Next
First Last


123 => good data
MM => data is determined as missing
-- => data not received/configured
Back to Top Back to Top
3/20/2020 17:00 to 16:10 24.891 24.988 24.848 24.987 25.014 24.124
3/20/2020 16:00 to 15:10 24.826 23.809 24.264 24.247 24.270 23.911
3/20/2020 15:00 to 14:10 24.440 24.761 24.784 24.744 25.254 24.881
3/20/2020 14:00 to 13:10 25.380 25.068 24.729 24.658 24.954 25.255
3/20/2020 13:00 to 12:10 25.097 24.597 24.568 24.740 25.150 24.943
3/20/2020 12:00 to 11:10 24.930 24.901 25.367 25.315 25.414 25.285
3/20/2020 11:00 to 10:10 25.453 25.640 25.500 25.593 25.688 25.681
3/20/2020 10:00 to 9:10 25.644 25.649 25.661 25.481 25.758 25.706
3/20/2020 09:00 to 8:10 25.672 25.787 25.834 25.797 25.788 25.750
3/20/2020 08:00 to 7:10 25.755 25.829 25.754 25.776 25.777 25.725
3/20/2020 07:00 to 6:10 25.681 25.652 25.610 25.596 25.542 25.340
3/20/2020 06:00 to 5:10 25.308 25.540 25.511 25.530 25.481 25.480
3/20/2020 05:00 to 4:10 25.521 25.640 25.573 25.659 25.743 25.673
3/20/2020 04:00 to 3:10 25.750 25.698 25.778 25.625 25.798 25.706
3/20/2020 03:00 to 2:10 25.459 25.603 25.673 25.658 25.268 24.705
3/20/2020 02:00 to 1:10 24.470 24.212 24.387 24.409 24.631 24.617
3/20/2020 01:00 to 0:10 24.665 24.987 25.370 24.323 24.233 24.059
3/20/2020 00:00 to 23:10 23.993 23.998 24.027 24.288 24.066 24.324
3/19/2020 23:00 to 22:10 24.251 24.485 24.724 24.715 25.724 25.693
3/19/2020 22:00 to 21:10 25.859 25.883 25.961 26.066 25.960 26.086
3/19/2020 21:00 to 20:10 26.132 26.134 25.997 25.935 25.931 25.944
3/19/2020 20:00 to 19:10 26.069 25.970 26.234 26.201 25.988 26.125
3/19/2020 19:00 to 18:10 26.228 26.232 26.192 26.225 26.066 26.184
3/19/2020 18:00 to 17:10 25.920 26.064 26.194 25.849 26.184 25.929
3/19/2020 17:00 to 16:10 25.952 25.704 26.101 25.868 25.768 25.838
3/19/2020 16:00 to 15:10 25.697 25.829 25.791 25.745 25.886 25.838
3/19/2020 15:00 to 14:10 25.698 25.659 25.628 25.642 25.735 25.583
3/19/2020 14:00 to 13:10 25.653 25.616 25.624 25.573 25.548 25.536
3/19/2020 13:00 to 12:10 25.312 24.901 25.324 25.226 25.301 25.345
3/19/2020 12:00 to 11:10 25.348 25.355 25.337 25.458 25.334 25.398
3/19/2020 11:00 to 10:10 25.505 25.645 25.656 25.598 25.647 25.684
3/19/2020 10:00 to 9:10 25.647 25.728 25.909 25.816 25.771 25.866
3/19/2020 09:00 to 8:10 25.890 25.579 25.812 25.632 25.790 25.646
3/19/2020 08:00 to 7:10 25.627 25.629 25.877 25.805 26.012 25.774
3/19/2020 07:00 to 6:10 26.064 26.145 26.168 26.158 26.158 26.152
3/19/2020 06:00 to 5:10 26.162 26.143 26.171 26.155 25.931 26.128
3/19/2020 05:00 to 4:10 26.000 25.733 25.737 25.464 25.458 25.453
3/19/2020 04:00 to 3:10 25.450 25.445 25.444 25.435 25.452 25.444
3/19/2020 03:00 to 2:10 25.463 25.480 25.447 25.467 25.434 25.420
3/19/2020 02:00 to 1:10 25.420 25.640 25.510 25.492 25.532 25.466
3/19/2020 01:00 to 0:10 25.411 25.405 25.416 25.396 25.420 25.404

 

 

 

Conductivity [S/m]     6 entries per hour
Showing data from 3/20/2020 (17:00:00 Z) to 3/19/2020 (00:00:01 Z)
Previous Next [ Day | 3-Days | 7-Days ]
First Last
Prev [ Day | 3-Days | 7-Days ] Next
First Last

Start Time:     :
End Time:     :     
Time (in GMT) :00 :50 :40 :30 :20 :10
Previous Next [ Day | 3-Days | 7-Days ]
First Last
Prev [ Day | 3-Days | 7-Days ] Next
First Last


123 => good data
MM => data is determined as missing
-- => data not received/configured
Back to Top Back to Top
3/20/2020 17:00 to 16:10 5.36976 5.37213 5.38017 5.37701 5.37950 5.29407
3/20/2020 16:00 to 15:10 5.37149 5.27534 5.31242 5.31587 5.32805 5.28244
3/20/2020 15:00 to 14:10 5.34112 5.36265 5.36536 5.34071 5.39294 5.35456
3/20/2020 14:00 to 13:10 5.40793 5.37864 5.33749 5.32965 5.36260 5.39864
3/20/2020 13:00 to 12:10 5.37897 5.32651 5.32101 5.33817 5.38221 5.35898
3/20/2020 12:00 to 11:10 5.36214 5.35746 5.40849 5.41032 5.41797 5.40903
3/20/2020 11:00 to 10:10 5.42025 5.43873 5.42551 5.43700 5.44231 5.44218
3/20/2020 10:00 to 9:10 5.43926 5.43968 5.44055 5.42704 5.44752 5.44363
3/20/2020 09:00 to 8:10 5.44273 5.45027 5.45171 5.45154 5.44966 5.44737
3/20/2020 08:00 to 7:10 5.44739 5.45402 5.44848 5.44961 5.44879 5.44534
3/20/2020 07:00 to 6:10 5.44292 5.44057 5.43787 5.43553 5.43135 5.41618
3/20/2020 06:00 to 5:10 5.40829 5.43239 5.43005 5.43058 5.42710 5.42760
3/20/2020 05:00 to 4:10 5.43182 5.43939 5.43555 5.43965 5.44668 5.44228
3/20/2020 04:00 to 3:10 5.44663 5.44450 5.44715 5.43973 5.44918 5.44466
3/20/2020 03:00 to 2:10 5.43179 5.43763 5.44173 5.44013 5.41340 5.34986
3/20/2020 02:00 to 1:10 5.32593 5.27745 5.31005 5.31732 5.33876 5.33975
3/20/2020 01:00 to 0:10 5.34570 5.38678 5.40808 5.30476 5.29254 5.27406
3/20/2020 00:00 to 23:10 5.25885 5.25944 5.26371 5.30182 5.26991 5.30525
3/19/2020 23:00 to 22:10 5.30141 5.32284 5.36034 5.35563 5.44661 5.44431
3/19/2020 22:00 to 21:10 5.45504 5.45792 5.46366 5.46869 5.46472 5.46921
3/19/2020 21:00 to 20:10 5.46921 5.47112 5.46705 5.46173 5.46202 5.46289
3/19/2020 20:00 to 19:10 5.46829 5.46472 5.47496 5.47682 5.46509 5.47314
3/19/2020 19:00 to 18:10 5.47283 5.47360 5.47204 5.47291 5.46598 5.47239
3/19/2020 18:00 to 17:10 5.46070 5.46728 5.47231 5.45417 5.47449 5.46062
3/19/2020 17:00 to 16:10 5.46051 5.44494 5.47229 5.45671 5.45186 5.45589
3/19/2020 16:00 to 15:10 5.44426 5.45280 5.45090 5.44726 5.45499 5.45483
3/19/2020 15:00 to 14:10 5.44463 5.44197 5.44018 5.44047 5.44700 5.43737
3/19/2020 14:00 to 13:10 5.44226 5.43931 5.43971 5.43634 5.43516 5.43388
3/19/2020 13:00 to 12:10 5.41801 5.38126 5.41777 5.40832 5.41486 5.42080
3/19/2020 12:00 to 11:10 5.42103 5.42098 5.41857 5.43043 5.41904 5.42729
3/19/2020 11:00 to 10:10 5.43119 5.44100 5.44144 5.43895 5.44094 5.44191
3/19/2020 10:00 to 9:10 5.44100 5.44597 5.45882 5.45042 5.44890 5.45502
3/19/2020 09:00 to 8:10 5.45710 5.43732 5.45132 5.43965 5.44953 5.44050
3/19/2020 08:00 to 7:10 5.43905 5.43934 5.45811 5.45074 5.46567 5.44958
3/19/2020 07:00 to 6:10 5.46977 5.47215 5.46430 5.45451 5.45440 5.45445
3/19/2020 06:00 to 5:10 5.45490 5.45319 5.46684 5.45903 5.46059 5.47184
3/19/2020 05:00 to 4:10 5.46877 5.44687 5.44716 5.42985 5.42793 5.42686
3/19/2020 04:00 to 3:10 5.42647 5.42660 5.42660 5.42567 5.42668 5.42629
3/19/2020 03:00 to 2:10 5.42761 5.42968 5.42969 5.42700 5.42647 5.42493
3/19/2020 02:00 to 1:10 5.42459 5.44054 5.43229 5.43085 5.43351 5.42791
3/19/2020 01:00 to 0:10 5.42352 5.42321 5.42352 5.42284 5.42432 5.42311

 

 

 

Salinity [psu]     6 entries per hour
Showing data from 3/20/2020 (17:00:00 Z) to 3/19/2020 (00:00:01 Z)
Previous Next [ Day | 3-Days | 7-Days ]
First Last
Prev [ Day | 3-Days | 7-Days ] Next
First Last

Start Time:     :
End Time:     :     
Time (in GMT) :00 :50 :40 :30 :20 :10
Previous Next [ Day | 3-Days | 7-Days ]
First Last
Prev [ Day | 3-Days | 7-Days ] Next
First Last


123 => good data
MM => data is determined as missing
-- => data not received/configured
Back to Top Back to Top
3/20/2020 17:00 to 16:10 35.53 35.47 35.64 35.50 35.50 35.56
3/20/2020 16:00 to 15:10 35.59 35.68 35.59 35.63 35.70 35.65
3/20/2020 15:00 to 14:10 35.67 35.57 35.58 35.42 35.41 35.42
3/20/2020 14:00 to 13:10 35.43 35.45 35.41 35.41 35.42 35.45
3/20/2020 13:00 to 12:10 35.43 35.43 35.42 35.41 35.41 35.40
3/20/2020 12:00 to 11:10 35.44 35.43 35.44 35.49 35.47 35.51
3/20/2020 11:00 to 10:10 35.46 35.45 35.46 35.47 35.44 35.44
3/20/2020 10:00 to 9:10 35.45 35.45 35.45 35.49 35.42 35.43
3/20/2020 09:00 to 8:10 35.45 35.42 35.39 35.42 35.41 35.43
3/20/2020 08:00 to 7:10 35.42 35.41 35.43 35.42 35.42 35.43
3/20/2020 07:00 to 6:10 35.45 35.45 35.47 35.46 35.47 35.52
3/20/2020 06:00 to 5:10 35.48 35.48 35.49 35.48 35.49 35.49
3/20/2020 05:00 to 4:10 35.49 35.45 35.48 35.44 35.43 35.45
3/20/2020 04:00 to 3:10 35.42 35.45 35.40 35.47 35.40 35.44
3/20/2020 03:00 to 2:10 35.54 35.47 35.45 35.45 35.55 35.52
3/20/2020 02:00 to 1:10 35.53 35.37 35.48 35.51 35.50 35.52
3/20/2020 01:00 to 0:10 35.52 35.58 35.43 35.49 35.47 35.47
3/20/2020 00:00 to 23:10 35.40 35.40 35.41 35.49 35.43 35.49
3/19/2020 23:00 to 22:10 35.52 35.50 35.59 35.56 35.44 35.45
3/19/2020 22:00 to 21:10 35.40 35.40 35.38 35.34 35.39 35.33
3/19/2020 21:00 to 20:10 35.29 35.30 35.38 35.39 35.39 35.39
3/19/2020 20:00 to 19:10 35.33 35.38 35.25 35.29 35.37 35.33
3/19/2020 19:00 to 18:10 35.24 35.25 35.27 35.25 35.32 35.27
3/19/2020 18:00 to 17:10 35.39 35.33 35.27 35.40 35.29 35.39
3/19/2020 17:00 to 16:10 35.37 35.44 35.34 35.40 35.45 35.42
3/19/2020 16:00 to 15:10 35.45 35.41 35.42 35.43 35.38 35.41
3/19/2020 15:00 to 14:10 35.45 35.46 35.47 35.46 35.44 35.48
3/19/2020 14:00 to 13:10 35.47 35.47 35.47 35.48 35.49 35.49
3/19/2020 13:00 to 12:10 35.55 35.60 35.54 35.55 35.54 35.55
3/19/2020 12:00 to 11:10 35.55 35.54 35.54 35.53 35.54 35.55
3/19/2020 11:00 to 10:10 35.50 35.46 35.46 35.48 35.46 35.44
3/19/2020 10:00 to 9:10 35.46 35.43 35.39 35.40 35.42 35.39
3/19/2020 09:00 to 8:10 35.39 35.49 35.41 35.46 35.41 35.46
3/19/2020 08:00 to 7:10 35.46 35.46 35.41 35.41 35.36 35.42
3/19/2020 07:00 to 6:10 35.35 35.30 35.23 35.16 35.16 35.17
3/19/2020 06:00 to 5:10 35.16 35.17 35.24 35.20 35.38 35.31
3/19/2020 05:00 to 4:10 35.39 35.44 35.44 35.52 35.51 35.51
3/19/2020 04:00 to 3:10 35.51 35.51 35.51 35.51 35.51 35.51
3/19/2020 03:00 to 2:10 35.51 35.51 35.53 35.50 35.52 35.52
3/19/2020 02:00 to 1:10 35.52 35.46 35.50 35.51 35.49 35.51
3/19/2020 01:00 to 0:10 35.52 35.52 35.51 35.52 35.51 35.52